Time;durP1;ratioP1;P1;durP2;ratioP2;P2;SDS_P1;SDS_P2;PMS_P1;PMS_P2;Temp;Humidity;BMP_temperature;BMP_pressure;BME280_temperature;BME280_humidity;BME280_pressure;Samples;Min_cycle;Max_cycle;Signal;HPM_P1;HPM_P2
2021/03/19 00:01:48;;;;;;;;;;;;;;;2.09;71.46;100127.59;1743250;82;20257;-55
2021/03/19 00:04:52;;;;;;;;;;;;;;;2.09;71.65;100135.69;1742990;82;20205;-55
2021/03/19 00:07:59;;;;;;;;;;;;;;;2.10;71.70;100132.86;1730471;81;20223;-55
2021/03/19 00:11:05;;;;;;;;;;;;;;;2.11;71.72;100131.86;1674492;86;20242;-55
2021/03/19 00:14:10;;;;;;;;;;;;;;;2.10;71.60;100127.46;1674552;84;20242;-55
2021/03/19 00:17:14;;;;;;;;;;;;;;;2.06;71.60;100125.98;1674678;84;20235;-55
2021/03/19 00:20:19;;;;;;;;;;;;;;;2.08;71.60;100133.47;1674570;86;20250;-55
2021/03/19 00:23:22;;;;;;;;;;;;;;;2.09;71.32;100129.80;1674548;84;20273;-55
2021/03/19 00:26:27;;;;;;;;;;;;;;;2.09;70.99;100131.64;1674557;86;20238;-55
2021/03/19 00:29:31;;;;;;;;;;;;;;;2.06;70.79;100128.69;1674565;84;20219;-56
2021/03/19 00:32:34;;;;;;;;;;;;;;;2.02;70.39;100136.69;1674588;84;20206;-55
2021/03/19 00:35:41;;;;;;;;;;;;;;;2.00;70.44;100137.81;1674818;86;20286;-55
2021/03/19 00:38:44;;;;;;;;;;;;;;;1.95;70.46;100134.64;1674618;84;20539;-55
2021/03/19 00:41:49;;;;;;;;;;;;;;;1.92;70.34;100133.55;1674642;86;20222;-56
2021/03/19 00:44:53;;;;;;;;;;;;;;;1.91;70.26;100138.56;1674625;86;20250;-55
2021/03/19 00:48:01;;;;;;;;;;;;;;;1.88;70.24;100130.23;1674593;84;20214;-55
2021/03/19 00:51:08;;;;;;;;;;;;;;;1.87;70.20;100133.91;1684279;85;20290;-55
2021/03/19 00:54:14;;;;;;;;;;;;;;;1.89;70.20;100137.85;1684679;84;20270;-56
2021/03/19 00:57:18;;;;;;;;;;;;;;;1.85;70.00;100136.38;1684901;84;20227;-55
2021/03/19 01:00:25;;;;;;;;;;;;;;;1.76;69.78;100128.53;1693847;80;20589;-55
2021/03/19 01:03:29;;;;;;;;;;;;;;;1.70;70.02;100132.27;1694802;83;20202;-56
2021/03/19 01:06:34;;;;;;;;;;;;;;;1.70;70.72;100129.56;1709411;83;20215;-56
2021/03/19 01:09:37;;;;;;;;;;;;;;;1.77;71.22;100129.41;1694820;85;20205;-55
2021/03/19 01:12:42;;;;;;;;;;;;;;;1.83;71.32;100129.76;1694769;83;20439;-55
2021/03/19 01:15:47;;;;;;;;;;;;;;;1.85;71.04;100125.10;1694342;85;20578;-56
2021/03/19 01:18:50;;;;;;;;;;;;;;;1.85;70.84;100132.33;1694390;83;20206;-56
2021/03/19 01:21:55;;;;;;;;;;;;;;;1.83;70.79;100130.23;1694517;85;20612;-56
2021/03/19 01:24:58;;;;;;;;;;;;;;;1.83;70.76;100132.45;1694552;85;20221;-56
2021/03/19 01:28:02;;;;;;;;;;;;;;;1.84;70.52;100130.62;1694687;83;20218;-56
2021/03/19 01:31:09;;;;;;;;;;;;;;;1.80;70.30;100131.84;1694907;85;20198;-56
2021/03/19 01:34:13;;;;;;;;;;;;;;;1.79;70.39;100135.54;1694947;83;20214;-56
2021/03/19 01:37:19;;;;;;;;;;;;;;;1.78;70.64;100129.27;1694986;83;20205;-55
2021/03/19 01:40:24;;;;;;;;;;;;;;;1.80;70.99;100130.02;1695221;85;20218;-55
2021/03/19 01:43:56;;;;;;;;;;;;;;;1.80;71.26;100127.31;1695291;83;20304;-55
2021/03/19 01:47:37;;;;;;;;;;;;;;;1.81;71.32;100124.14;1695037;83;20225;-55
2021/03/19 01:51:19;;;;;;;;;;;;;;;1.74;71.20;100135.05;1695032;85;20213;-54
2021/03/19 01:54:59;;;;;;;;;;;;;;;1.70;71.52;100133.61;1695123;83;20242;-56
2021/03/19 01:58:40;;;;;;;;;;;;;;;1.69;71.47;100134.57;1695213;83;20218;-55
2021/03/19 02:02:21;;;;;;;;;;;;;;;1.67;71.33;100133.83;1696135;82;20257;-56
2021/03/19 02:06:03;;;;;;;;;;;;;;;1.67;71.19;100138.74;1725257;83;20547;-56
2021/03/19 02:09:44;;;;;;;;;;;;;;;1.64;71.06;100135.44;1726228;82;20277;-55
2021/03/19 02:13:24;;;;;;;;;;;;;;;1.61;71.08;100138.39;1726549;82;20216;-54
2021/03/19 02:17:06;;;;;;;;;;;;;;;1.60;71.29;100132.64;1726242;83;20213;-54
2021/03/19 02:20:48;;;;;;;;;;;;;;;1.64;71.79;100138.13;1726276;83;20288;-55
2021/03/19 02:24:29;;;;;;;;;;;;;;;1.70;72.03;100139.00;1726485;82;20218;-55
2021/03/19 02:28:10;;;;;;;;;;;;;;;1.72;72.12;100137.88;1726225;82;20284;-55
2021/03/19 02:31:17;;;;;;;;;;;;;;;1.74;72.14;100137.75;1726506;83;20294;-56
2021/03/19 02:34:22;;;;;;;;;;;;;;;1.74;72.27;100139.10;1726325;82;20209;-55
2021/03/19 02:37:28;;;;;;;;;;;;;;;1.78;72.22;100136.02;1726240;82;20304;-55
2021/03/19 02:40:33;;;;;;;;;;;;;;;1.76;71.83;100140.68;1726476;83;20280;-56
2021/03/19 02:43:36;;;;;;;;;;;;;;;1.70;71.58;100141.70;1726489;82;20233;-54
2021/03/19 02:46:40;;;;;;;;;;;;;;;1.65;71.31;100145.27;1726273;83;20471;-55
2021/03/19 02:49:47;;;;;;;;;;;;;;;1.57;71.16;100143.69;1726509;83;20233;-55
2021/03/19 02:52:51;;;;;;;;;;;;;;;1.53;71.14;100153.86;1726574;82;20185;-54
2021/03/19 02:55:56;;;;;;;;;;;;;;;1.52;71.08;100162.42;1727078;82;20551;-55
2021/03/19 02:59:01;;;;;;;;;;;;;;;1.53;70.90;100166.86;1726263;82;20621;-60
2021/03/19 03:02:05;;;;;;;;;;;;;;;1.53;70.54;100183.05;1722771;79;20311;-56
2021/03/19 03:05:11;;;;;;;;;;;;;;;1.49;70.34;100175.33;1704379;83;20288;-56
2021/03/19 03:08:16;;;;;;;;;;;;;;;1.39;70.17;100179.73;1704106;83;20216;-56
2021/03/19 03:11:21;;;;;;;;;;;;;;;1.28;70.29;100182.44;1704197;84;20311;-56
2021/03/19 03:14:27;;;;;;;;;;;;;;;1.19;70.48;100190.75;1704049;83;20679;-56
2021/03/19 03:17:31;;;;;;;;;;;;;;;1.15;70.66;100193.81;1704070;83;20679;-54
2021/03/19 03:20:42;;;;;;;;;;;;;;;1.17;70.89;100203.48;1704196;84;20465;-56
2021/03/19 03:23:45;;;;;;;;;;;;;;;1.22;70.96;100212.06;1704152;83;20269;-56
2021/03/19 03:26:51;;;;;;;;;;;;;;;1.28;70.77;100215.66;1704124;84;20295;-56
2021/03/19 03:29:54;;;;;;;;;;;;;;;1.32;70.41;100218.94;1704254;84;20291;-54
2021/03/19 03:32:58;;;;;;;;;;;;;;;1.25;69.97;100219.91;1704042;83;20313;-54
2021/03/19 03:36:03;;;;;;;;;;;;;;;1.18;69.75;100217.83;1704030;84;20208;-56
2021/03/19 03:39:08;;;;;;;;;;;;;;;1.13;69.69;100228.11;1704065;83;20245;-55
2021/03/19 03:42:13;;;;;;;;;;;;;;;1.05;69.66;100230.06;1704041;83;20208;-54
2021/03/19 03:45:19;;;;;;;;;;;;;;;1.00;69.67;100227.37;1704073;84;20261;-54
2021/03/19 03:48:25;;;;;;;;;;;;;;;0.98;69.87;100230.66;1704011;83;20216;-56
2021/03/19 03:51:30;;;;;;;;;;;;;;;0.97;70.00;100225.75;1703863;84;20288;-57
2021/03/19 03:54:36;;;;;;;;;;;;;;;0.96;69.92;100228.58;1704304;84;20296;-56
2021/03/19 03:57:40;;;;;;;;;;;;;;;0.94;69.99;100228.69;1704076;83;20556;-53
2021/03/19 04:00:45;;;;;;;;;;;;;;;0.95;70.11;100230.39;1704096;84;20312;-56
2021/03/19 04:03:51;;;;;;;;;;;;;;;0.98;70.21;100228.80;1715349;79;20299;-55
2021/03/19 04:06:54;;;;;;;;;;;;;;;1.02;70.29;100227.61;1714937;84;20208;-55
2021/03/19 04:09:58;;;;;;;;;;;;;;;1.06;70.33;100230.42;1714981;84;20627;-54
2021/03/19 04:13:03;;;;;;;;;;;;;;;1.12;70.53;100235.36;1751260;80;20281;-55
2021/03/19 04:16:07;;;;;;;;;;;;;;;1.21;70.56;100238.67;1751025;82;20245;-54
2021/03/19 04:19:12;;;;;;;;;;;;;;;1.26;70.29;100243.22;1751071;80;20206;-54
2021/03/19 04:22:15;;;;;;;;;;;;;;;1.24;70.28;100242.47;1751145;80;20257;-54
2021/03/19 04:25:20;;;;;;;;;;;;;;;1.29;70.39;100233.53;1751085;82;20807;-54
2021/03/19 04:28:26;;;;;;;;;;;;;;;1.37;70.38;100243.70;1751255;80;20245;-54
2021/03/19 04:31:31;;;;;;;;;;;;;;;1.42;70.26;100243.72;1751055;82;20249;-54
2021/03/19 04:34:36;;;;;;;;;;;;;;;1.47;70.11;100241.49;1751025;82;20221;-54
2021/03/19 04:37:40;;;;;;;;;;;;;;;1.53;70.25;100245.08;1751032;80;20212;-55
2021/03/19 04:40:48;;;;;;;;;;;;;;;1.51;70.30;100250.20;1751094;82;20213;-54
2021/03/19 04:43:51;;;;;;;;;;;;;;;1.53;70.50;100253.65;1751038;80;20317;-55
2021/03/19 04:46:55;;;;;;;;;;;;;;;1.57;70.62;100256.45;1751182;82;20236;-55
2021/03/19 04:50:01;;;;;;;;;;;;;;;1.65;70.72;100251.30;1751170;82;20236;-54
2021/03/19 04:53:06;;;;;;;;;;;;;;;1.68;70.52;100255.14;1750935;80;20212;-54
2021/03/19 04:56:12;;;;;;;;;;;;;;;1.74;70.59;100256.47;1751153;82;20222;-54
2021/03/19 04:59:16;;;;;;;;;;;;;;;1.73;70.46;100262.34;1751306;80;20213;-54
2021/03/19 05:02:19;;;;;;;;;;;;;;;1.76;70.72;100268.00;1751180;80;20229;-54
2021/03/19 05:05:29;;;;;;;;;;;;;;;1.89;70.84;100266.04;1749477;82;20248;-54
2021/03/19 05:08:33;;;;;;;;;;;;;;;2.03;70.80;100267.13;1749641;81;20217;-54
2021/03/19 05:11:37;;;;;;;;;;;;;;;2.17;70.67;100272.25;1748707;82;20209;-54
2021/03/19 05:14:41;;;;;;;;;;;;;;;2.27;70.50;100263.25;1750048;82;20233;-55
2021/03/19 05:17:45;;;;;;;;;;;;;;;2.34;70.40;100263.61;1749312;82;20197;-54
2021/03/19 05:20:51;;;;;;;;;;;;;;;2.44;70.37;100263.23;1749499;82;20209;-53
2021/03/19 05:23:55;;;;;;;;;;;;;;;2.54;70.21;100266.38;1748982;82;20205;-53
2021/03/19 05:26:59;;;;;;;;;;;;;;;2.59;69.95;100261.93;1749104;82;20306;-55
2021/03/19 05:30:04;;;;;;;;;;;;;;;2.56;69.85;100260.36;1749537;82;20252;-55
2021/03/19 05:33:12;;;;;;;;;;;;;;;2.57;70.29;100262.06;1749412;82;20228;-54
2021/03/19 05:36:19;;;;;;;;;;;;;;;2.64;70.45;100273.22;1749577;82;20212;-54
2021/03/19 05:39:24;;;;;;;;;;;;;;;2.72;70.25;100263.48;1749509;82;20249;-54
2021/03/19 05:42:37;;;;;;;;;;;;;;;2.80;70.38;100269.59;1748410;82;20213;-54
2021/03/19 05:45:41;;;;;;;;;;;;;;;2.96;70.51;100261.42;1749556;82;20803;-54
2021/03/19 05:48:49;;;;;;;;;;;;;;;3.10;70.17;100264.28;1749080;82;20569;-53
2021/03/19 05:51:55;;;;;;;;;;;;;;;3.22;69.74;100267.27;1748666;82;20203;-53
2021/03/19 05:55:04;;;;;;;;;;;;;;;3.32;69.55;100272.25;1746988;80;20236;-55
2021/03/19 05:58:34;;;;;;;;;;;;;;;3.41;69.44;100268.74;1743340;80;20216;-55
2021/03/19 06:01:41;;;;;;;;;;;;;;;3.54;69.21;100270.75;1746245;82;20249;-56
2021/03/19 06:04:46;;;;;;;;;;;;;;;3.69;69.05;100273.47;1747943;81;20245;-56
2021/03/19 06:07:56;;;;;;;;;;;;;;;3.85;68.82;100280.61;1711346;82;20237;-56
2021/03/19 06:11:03;;;;;;;;;;;;;;;4.01;68.47;100282.28;1710275;84;20245;-56
2021/03/19 06:14:13;;;;;;;;;;;;;;;4.16;68.20;100282.28;1686698;83;20214;-56
2021/03/19 06:17:20;;;;;;;;;;;;;;;4.35;67.74;100278.77;1716941;81;20214;-56
2021/03/19 06:20:25;;;;;;;;;;;;;;;4.52;67.01;100283.00;1733536;83;20225;-56
2021/03/19 06:23:30;;;;;;;;;;;;;;;4.67;66.52;100283.95;1734176;81;20218;-56
2021/03/19 06:26:35;;;;;;;;;;;;;;;4.83;65.97;100282.90;1734647;83;20217;-54
2021/03/19 06:29:51;;;;;;;;;;;;;;;4.86;65.00;100280.77;1734466;83;20242;-54
2021/03/19 06:33:14;;;;;;;;;;;;;;;4.94;64.64;100282.27;1734138;81;20241;-56
2021/03/19 06:36:27;;;;;;;;;;;;;;;5.05;64.04;100286.20;1734084;83;20226;-56
2021/03/19 06:39:57;;;;;;;;;;;;;;;5.16;63.58;100291.95;1733889;81;20526;-55
2021/03/19 06:43:00;;;;;;;;;;;;;;;5.24;63.07;100294.81;1734266;81;20614;-56
2021/03/19 06:46:19;;;;;;;;;;;;;;;5.30;62.35;100302.37;1734402;83;20367;-57
2021/03/19 06:49:25;;;;;;;;;;;;;;;5.26;61.09;100299.60;1734651;81;20289;-55
2021/03/19 06:52:34;;;;;;;;;;;;;;;5.16;60.83;100295.54;1734788;81;20229;-57
2021/03/19 06:55:44;;;;;;;;;;;;;;;5.23;60.69;100299.90;1733795;83;20246;-56
2021/03/19 06:58:53;;;;;;;;;;;;;;;5.32;60.73;100301.73;1711795;82;20280;-55
2021/03/19 07:01:59;;;;;;;;;;;;;;;5.38;60.56;100309.29;1710913;84;20660;-56
2021/03/19 07:05:09;;;;;;;;;;;;;;;5.45;60.31;100311.80;1711595;83;20572;-55
2021/03/19 07:08:38;;;;;;;;;;;;;;;5.58;60.19;100306.40;1718870;82;20514;-55
2021/03/19 07:12:01;;;;;;;;;;;;;;;5.71;59.67;100307.44;1717872;83;20216;-56
2021/03/19 07:15:18;;;;;;;;;;;;;;;5.84;59.85;100308.02;1710126;83;20215;-56
2021/03/19 07:18:41;;;;;;;;;;;;;;;5.93;59.67;100312.06;1708975;83;20213;-59
2021/03/19 07:22:11;;;;;;;;;;;;;;;6.08;59.47;100312.44;1709664;83;20548;-59
2021/03/19 07:25:25;;;;;;;;;;;;;;;6.25;59.07;100321.16;1712769;82;20216;-58
2021/03/19 07:28:49;;;;;;;;;;;;;;;6.31;57.92;100313.75;1721583;82;20272;-59
2021/03/19 07:31:57;;;;;;;;;;;;;;;6.24;57.46;100315.37;1723375;82;20212;-59
2021/03/19 07:35:12;;;;;;;;;;;;;;;6.27;56.99;100314.20;1706129;82;20224;-58
2021/03/19 07:38:45;;;;;;;;;;;;;;;6.36;57.25;100314.16;1708633;83;20251;-57
2021/03/19 07:41:55;;;;;;;;;;;;;;;6.52;56.80;100310.28;1741042;82;20265;-58
2021/03/19 07:45:04;;;;;;;;;;;;;;;6.59;56.53;100315.48;1728432;82;20788;-59
2021/03/19 07:48:33;;;;;;;;;;;;;;;6.67;56.52;100311.99;1704153;83;20284;-59
2021/03/19 07:51:43;;;;;;;;;;;;;;;6.80;56.12;100316.56;1723598;82;20279;-59
2021/03/19 07:55:01;;;;;;;;;;;;;;;6.92;55.74;100317.55;1707573;83;20243;-58
2021/03/19 07:58:23;;;;;;;;;;;;;;;6.99;55.46;100315.07;1732205;81;20612;-58
2021/03/19 08:01:46;;;;;;;;;;;;;;;7.11;55.20;100317.90;1725143;82;20288;-59
2021/03/19 08:05:00;;;;;;;;;;;;;;;7.19;55.00;100314.77;1735079;82;20586;-58
2021/03/19 08:08:42;;;;;;;;;;;;;;;7.33;54.66;100322.87;1682322;83;20217;-58
2021/03/19 08:12:02;;;;;;;;;;;;;;;7.44;53.62;100319.91;1681850;85;20589;-58
2021/03/19 08:15:31;;;;;;;;;;;;;;;7.40;53.10;100327.52;1682230;85;20238;-59
2021/03/19 08:18:58;;;;;;;;;;;;;;;7.45;52.84;100333.36;1681462;84;20218;-59
2021/03/19 08:22:28;;;;;;;;;;;;;;;7.52;52.52;100334.95;1681396;85;20225;-59
2021/03/19 08:25:38;;;;;;;;;;;;;;;7.58;53.15;100342.48;1645511;86;20213;-59
2021/03/19 08:28:47;;;;;;;;;;;;;;;7.55;53.37;100334.14;1656533;84;20238;-59
2021/03/19 08:31:57;;;;;;;;;;;;;;;7.61;53.02;100337.58;1660259;86;20279;-59
2021/03/19 08:35:22;;;;;;;;;;;;;;;7.64;52.58;100341.34;1709081;83;20215;-58
2021/03/19 08:38:33;;;;;;;;;;;;;;;7.78;52.34;100346.75;1675174;83;20677;-58
2021/03/19 08:41:45;;;;;;;;;;;;;;;7.85;52.23;100340.16;1671037;84;20563;-58
2021/03/19 08:44:54;;;;;;;;;;;;;;;8.02;52.52;100340.61;1673700;83;20276;-59
2021/03/19 08:47:59;;;;;;;;;;;;;;;8.19;52.31;100335.09;1666533;84;20206;-58
2021/03/19 08:51:25;;;;;;;;;;;;;;;8.28;52.26;100336.88;1654919;86;20572;-59
2021/03/19 08:54:34;;;;;;;;;;;;;;;8.39;51.27;100337.95;1708098;83;20549;-58
2021/03/19 08:57:41;;;;;;;;;;;;;;;8.36;51.32;100338.78;1667123;83;20215;-57
2021/03/19 09:00:54;;;;;;;;;;;;;;;8.46;51.63;100338.16;1710843;82;20536;-58
2021/03/19 09:04:00;;;;;;;;;;;;;;;8.55;51.37;100331.21;1708417;81;20461;-57
2021/03/19 09:07:17;;;;;;;;;;;;;;;8.65;51.61;100336.54;1725190;81;20610;-58
2021/03/19 09:10:29;;;;;;;;;;;;;;;8.82;51.19;100335.56;1692958;80;20245;-58
2021/03/19 09:13:33;;;;;;;;;;;;;;;8.96;51.20;100336.28;1752871;81;20637;-57
2021/03/19 09:17:00;;;;;;;;;;;;;;;9.11;50.69;100338.73;1761011;80;20261;-57
2021/03/19 09:20:06;;;;;;;;;;;;;;;9.12;50.31;100332.23;1746833;80;20608;-57
2021/03/19 09:23:19;;;;;;;;;;;;;;;9.25;50.24;100336.70;1753053;80;20226;-56
2021/03/19 09:26:29;;;;;;;;;;;;;;;9.35;48.92;100331.94;1746817;82;20217;-57
2021/03/19 09:29:40;;;;;;;;;;;;;;;9.32;48.92;100332.78;1750224;82;20208;-57
2021/03/19 09:32:49;;;;;;;;;;;;;;;9.31;48.66;100344.22;1769130;79;20211;-57
2021/03/19 09:35:59;;;;;;;;;;;;;;;9.22;48.19;100347.97;1706893;82;20216;-57
2021/03/19 09:39:03;;;;;;;;;;;;;;;9.20;48.49;100347.27;1713964;82;20344;-56
2021/03/19 09:42:09;;;;;;;;;;;;;;;9.21;48.54;100347.63;1706934;82;20234;-58
2021/03/19 09:45:19;;;;;;;;;;;;;;;9.32;48.48;100346.45;1692599;85;20217;-57
2021/03/19 09:48:31;;;;;;;;;;;;;;;9.39;48.06;100344.22;1718099;82;20277;-57
2021/03/19 09:51:41;;;;;;;;;;;;;;;9.49;48.10;100346.80;1706117;82;20212;-57
2021/03/19 09:54:46;;;;;;;;;;;;;;;9.62;47.58;100348.02;1704493;82;20220;-57
2021/03/19 09:57:51;;;;;;;;;;;;;;;9.75;46.99;100346.96;1709495;82;20240;-57
2021/03/19 10:00:55;;;;;;;;;;;;;;;9.86;46.99;100344.41;1708996;82;20209;-57
2021/03/19 10:04:04;;;;;;;;;;;;;;;9.93;46.97;100349.52;1686607;84;20490;-58
2021/03/19 10:07:22;;;;;;;;;;;;;;;10.06;46.82;100352.58;1686372;85;20258;-54
2021/03/19 10:10:47;;;;;;;;;;;;;;;10.25;46.49;100351.73;1672942;84;20863;-55
2021/03/19 10:13:52;;;;;;;;;;;;;;;10.38;45.60;100349.81;1693952;83;20221;-57
2021/03/19 10:16:58;;;;;;;;;;;;;;;10.43;45.25;100345.51;1693103;85;20602;-54
2021/03/19 10:20:07;;;;;;;;;;;;;;;10.34;45.66;100349.30;1692538;85;20221;-53
2021/03/19 10:23:32;;;;;;;;;;;;;;;10.33;45.66;100353.08;1693690;85;20225;-53
2021/03/19 10:26:41;;;;;;;;;;;;;;;10.20;45.56;100354.64;1695099;85;20446;-54
2021/03/19 10:29:47;;;;;;;;;;;;;;;9.99;45.69;100355.16;1694920;85;20205;-54
2021/03/19 10:32:52;;;;;;;;;;;;;;;9.99;45.91;100356.52;1694080;85;20291;-53
2021/03/19 10:36:08;;;;;;;;;;;;;;;10.03;46.35;100356.53;1693649;85;20217;-54
2021/03/19 10:39:21;;;;;;;;;;;;;;;10.11;46.55;100355.19;1694097;83;20222;-54
2021/03/19 10:42:32;;;;;;;;;;;;;;;10.24;46.61;100350.55;1693590;85;20566;-54
2021/03/19 10:45:58;;;;;;;;;;;;;;;10.18;46.57;100347.97;1693763;85;20610;-54
2021/03/19 10:49:08;;;;;;;;;;;;;;;10.08;46.48;100345.97;1694683;83;20609;-54
2021/03/19 10:52:23;;;;;;;;;;;;;;;10.19;47.01;100350.20;1688704;83;20229;-55
2021/03/19 10:55:35;;;;;;;;;;;;;;;10.27;46.62;100351.05;1688290;84;20222;-55
2021/03/19 10:58:53;;;;;;;;;;;;;;;10.32;46.10;100347.79;1688370;84;20334;-58
2021/03/19 11:01:58;;;;;;;;;;;;;;;10.36;45.79;100347.77;1687149;85;20333;-57
2021/03/19 11:05:06;;;;;;;;;;;;;;;10.38;45.43;100346.58;1687035;84;20556;-57
2021/03/19 11:08:23;;;;;;;;;;;;;;;10.45;45.15;100347.56;1686518;85;20253;-57
2021/03/19 11:11:38;;;;;;;;;;;;;;;10.54;44.94;100344.30;1687700;81;20273;-58
2021/03/19 11:14:43;;;;;;;;;;;;;;;10.60;44.95;100349.05;1687504;85;20258;-57
2021/03/19 11:17:46;;;;;;;;;;;;;;;10.65;45.12;100345.78;1682952;85;20210;-59
2021/03/19 11:21:00;;;;;;;;;;;;;;;10.66;44.62;100345.61;1659403;86;20220;-58
2021/03/19 11:24:28;;;;;;;;;;;;;;;10.59;44.57;100342.72;1711199;82;20219;-58
2021/03/19 11:27:32;;;;;;;;;;;;;;;10.51;45.27;100340.01;1684635;84;20213;-58
2021/03/19 11:30:39;;;;;;;;;;;;;;;10.52;44.90;100336.77;1685143;85;20225;-58
2021/03/19 11:34:07;;;;;;;;;;;;;;;10.41;44.71;100340.75;1685064;85;20242;-58
2021/03/19 11:37:23;;;;;;;;;;;;;;;10.26;44.45;100333.41;1696039;83;20550;-58
2021/03/19 11:40:32;;;;;;;;;;;;;;;10.23;44.89;100328.30;1688483;83;20230;-57
2021/03/19 11:43:38;;;;;;;;;;;;;;;10.25;44.35;100327.11;1684892;85;20223;-57
2021/03/19 11:46:42;;;;;;;;;;;;;;;10.24;44.35;100329.48;1675180;85;20510;-57
2021/03/19 11:49:46;;;;;;;;;;;;;;;10.18;44.28;100333.47;1664921;85;20501;-57
2021/03/19 11:52:49;;;;;;;;;;;;;;;10.27;44.49;100331.91;1682567;84;20230;-58
2021/03/19 11:55:58;;;;;;;;;;;;;;;10.41;44.51;100324.33;1684774;85;20574;-58
2021/03/19 11:59:03;;;;;;;;;;;;;;;10.56;44.54;100332.13;1686036;84;20206;-57
2021/03/19 12:02:12;;;;;;;;;;;;;;;10.68;44.06;100329.00;1686938;85;20510;-57
2021/03/19 12:05:19;;;;;;;;;;;;;;;10.71;43.58;100330.88;1669564;85;20863;-58
2021/03/19 12:08:26;;;;;;;;;;;;;;;10.63;43.98;100327.30;1678356;84;20214;-58
2021/03/19 12:11:35;;;;;;;;;;;;;;;10.59;44.06;100334.51;1714610;82;20225;-58
2021/03/19 12:14:39;;;;;;;;;;;;;;;10.63;43.92;100339.63;1733637;82;20555;-58
2021/03/19 12:17:43;;;;;;;;;;;;;;;10.67;44.13;100338.25;1738661;81;20207;-57
2021/03/19 12:20:47;;;;;;;;;;;;;;;10.73;43.85;100337.54;1736513;82;20217;-58
2021/03/19 12:23:51;;;;;;;;;;;;;;;10.66;43.78;100336.02;1700613;83;20217;-58
2021/03/19 12:26:55;;;;;;;;;;;;;;;10.67;44.23;100340.48;1672730;86;20209;-58
2021/03/19 12:30:00;;;;;;;;;;;;;;;10.79;43.69;100347.77;1701909;83;20293;-58
2021/03/19 12:33:04;;;;;;;;;;;;;;;10.79;43.41;100337.69;1672491;84;20251;-57
2021/03/19 12:36:09;;;;;;;;;;;;;;;10.81;43.28;100346.58;1700127;84;20568;-58
2021/03/19 12:39:13;;;;;;;;;;;;;;;10.76;43.06;100336.67;1687383;84;20218;-57
2021/03/19 12:42:19;;;;;;;;;;;;;;;10.67;43.24;100349.20;1668530;85;20615;-51
2021/03/19 12:45:24;;;;;;;;;;;;;;;10.64;43.45;100343.55;1686567;85;20210;-47
2021/03/19 12:48:33;;;;;;;;;;;;;;;10.59;43.45;100351.47;1686036;83;20608;-44
2021/03/19 12:51:37;;;;;;;;;;;;;;;10.53;43.66;100347.53;1682843;85;20226;-44
2021/03/19 12:54:42;;;;;;;;;;;;;;;10.58;43.60;100354.38;1716008;82;20248;-46
2021/03/19 12:57:45;;;;;;;;;;;;;;;10.55;43.22;100353.70;1709572;82;20337;-53
2021/03/19 13:00:50;;;;;;;;;;;;;;;10.47;43.22;100357.83;1690492;84;20218;-57
2021/03/19 13:03:56;;;;;;;;;;;;;;;10.35;43.53;100357.02;1685579;85;20222;-58
2021/03/19 13:07:06;;;;;;;;;;;;;;;10.30;43.72;100356.67;1685924;85;20559;-57
2021/03/19 13:10:10;;;;;;;;;;;;;;;10.17;43.79;100353.62;1686324;85;20230;-57
2021/03/19 13:13:15;;;;;;;;;;;;;;;10.13;44.15;100350.91;1665091;82;20220;-57
2021/03/19 13:16:18;;;;;;;;;;;;;;;10.11;43.93;100357.06;1661315;85;20244;-58
2021/03/19 13:19:21;;;;;;;;;;;;;;;10.16;43.83;100356.86;1704431;81;20242;-58
2021/03/19 13:22:27;;;;;;;;;;;;;;;10.17;43.66;100358.59;1702282;82;20571;-58
2021/03/19 13:25:38;;;;;;;;;;;;;;;10.12;43.52;100356.88;1710423;83;20215;-58
2021/03/19 13:28:43;;;;;;;;;;;;;;;10.13;43.47;100362.68;1710233;82;20213;-58
2021/03/19 13:31:47;;;;;;;;;;;;;;;10.17;43.50;100365.42;1708617;84;20219;-58
2021/03/19 13:34:52;;;;;;;;;;;;;;;10.23;43.66;100360.62;1671667;83;20214;-57
2021/03/19 13:37:56;;;;;;;;;;;;;;;10.17;43.06;100361.33;1669369;85;20618;-57
2021/03/19 13:41:03;;;;;;;;;;;;;;;10.05;42.97;100360.45;1668937;86;20223;-57
2021/03/19 13:44:10;;;;;;;;;;;;;;;10.01;43.11;100358.58;1669094;86;20219;-57
2021/03/19 13:47:15;;;;;;;;;;;;;;;10.06;43.20;100359.42;1669835;86;20567;-57
2021/03/19 13:50:21;;;;;;;;;;;;;;;10.07;43.44;100358.38;1669766;86;20371;-57
2021/03/19 13:53:27;;;;;;;;;;;;;;;10.09;43.39;100359.97;1669535;86;20286;-57
2021/03/19 13:56:31;;;;;;;;;;;;;;;10.03;43.23;100366.10;1669285;86;20294;-58
2021/03/19 13:59:35;;;;;;;;;;;;;;;9.88;43.37;100360.97;1675282;84;20310;-58
2021/03/19 14:02:40;;;;;;;;;;;;;;;9.84;43.40;100360.13;1674064;83;20620;-57
2021/03/19 14:05:45;;;;;;;;;;;;;;;9.78;43.45;100369.89;1733770;82;20583;-53
2021/03/19 14:08:48;;;;;;;;;;;;;;;9.75;43.78;100363.36;1708536;83;20612;-53
2021/03/19 14:11:53;;;;;;;;;;;;;;;9.74;44.19;100368.50;1669626;84;20583;-54
2021/03/19 14:14:58;;;;;;;;;;;;;;;9.75;44.22;100370.20;1658552;83;20219;-54
2021/03/19 14:18:01;;;;;;;;;;;;;;;9.71;44.47;100367.98;1708887;83;20212;-53
2021/03/19 14:21:06;;;;;;;;;;;;;;;9.65;44.88;100363.20;1708342;84;20285;-53
2021/03/19 14:24:11;;;;;;;;;;;;;;;9.57;45.29;100365.42;1670692;83;20327;-54
2021/03/19 14:27:15;;;;;;;;;;;;;;;9.51;45.60;100362.02;1669382;85;20610;-55
2021/03/19 14:30:20;;;;;;;;;;;;;;;9.41;45.49;100368.14;1670117;86;20298;-54
2021/03/19 14:33:25;;;;;;;;;;;;;;;9.26;45.65;100373.07;1670126;86;20259;-54
2021/03/19 14:36:31;;;;;;;;;;;;;;;9.08;45.97;100374.56;1669923;86;20215;-54
2021/03/19 14:39:36;;;;;;;;;;;;;;;8.96;46.59;100375.38;1692667;83;20208;-60
2021/03/19 14:42:41;;;;;;;;;;;;;;;8.89;47.14;100375.70;1661055;84;20576;-54
2021/03/19 14:45:46;;;;;;;;;;;;;;;8.87;47.36;100380.97;1694842;83;20613;-54
2021/03/19 14:48:52;;;;;;;;;;;;;;;8.82;47.53;100377.38;1702700;84;20569;-55
2021/03/19 14:51:56;;;;;;;;;;;;;;;8.76;47.63;100378.54;1669319;86;20253;-54
2021/03/19 14:55:00;;;;;;;;;;;;;;;8.69;47.80;100389.25;1669398;84;20223;-54
2021/03/19 14:58:05;;;;;;;;;;;;;;;8.64;48.07;100383.95;1669930;84;20223;-54
2021/03/19 15:01:08;;;;;;;;;;;;;;;8.59;48.53;100386.31;1670562;86;20310;-54
2021/03/19 15:04:14;;;;;;;;;;;;;;;8.54;48.83;100386.80;1669105;84;20223;-53
2021/03/19 15:07:19;;;;;;;;;;;;;;;8.52;48.87;100386.61;1660138;85;20518;-54
2021/03/19 15:10:28;;;;;;;;;;;;;;;8.37;49.13;100384.15;1707883;83;20569;-54
2021/03/19 15:13:33;;;;;;;;;;;;;;;8.28;49.54;100385.09;1671340;82;20211;-54
2021/03/19 15:16:38;;;;;;;;;;;;;;;8.25;49.69;100389.52;1672181;86;20254;-54
2021/03/19 15:19:42;;;;;;;;;;;;;;;8.17;49.74;100386.70;1678097;84;20219;-54
2021/03/19 15:22:46;;;;;;;;;;;;;;;8.05;49.90;100392.08;1690634;83;20253;-54
2021/03/19 15:25:53;;;;;;;;;;;;;;;8.00;50.24;100391.70;1691047;85;20253;-54
2021/03/19 15:28:59;;;;;;;;;;;;;;;7.90;50.19;100391.80;1734388;81;20574;-53
2021/03/19 15:32:03;;;;;;;;;;;;;;;7.76;50.63;100392.86;1734714;83;20229;-55
2021/03/19 15:35:09;;;;;;;;;;;;;;;7.75;50.85;100396.12;1734538;83;20210;-54
2021/03/19 15:38:14;;;;;;;;;;;;;;;7.78;51.15;100405.83;1721681;82;20224;-54
2021/03/19 15:41:20;;;;;;;;;;;;;;;7.80;51.17;100402.45;1673796;85;20226;-54
2021/03/19 15:44:25;;;;;;;;;;;;;;;7.74;51.10;100407.17;1673910;85;20607;-54
2021/03/19 15:47:28;;;;;;;;;;;;;;;7.67;51.19;100415.61;1673472;86;20251;-54
2021/03/19 15:50:37;;;;;;;;;;;;;;;7.64;51.36;100421.72;1673859;86;20215;-53
2021/03/19 15:53:41;;;;;;;;;;;;;;;7.63;51.32;100425.96;1674703;84;20195;-54
2021/03/19 15:56:46;;;;;;;;;;;;;;;7.66;51.70;100428.89;1675473;84;20218;-54
2021/03/19 15:59:50;;;;;;;;;;;;;;;7.71;51.92;100429.29;1681072;83;20237;-54
2021/03/19 16:02:57;;;;;;;;;;;;;;;7.77;51.83;100428.66;1657806;85;20217;-54
2021/03/19 16:06:02;;;;;;;;;;;;;;;7.80;51.94;100424.25;1661216;84;20619;-54
2021/03/19 16:09:06;;;;;;;;;;;;;;;7.83;52.15;100428.02;1678476;84;20214;-53
2021/03/19 16:12:12;;;;;;;;;;;;;;;7.83;52.23;100437.56;1687306;84;20208;-54
2021/03/19 16:15:17;;;;;;;;;;;;;;;7.80;52.66;100437.34;1688782;82;20213;-53
2021/03/19 16:18:25;;;;;;;;;;;;;;;7.80;52.86;100444.69;1705018;83;20337;-54
2021/03/19 16:21:31;;;;;;;;;;;;;;;7.80;52.82;100446.88;1710581;82;20315;-55
2021/03/19 16:24:35;;;;;;;;;;;;;;;7.77;53.02;100453.18;1714902;82;20225;-54